Time;durP1;ratioP1;P1;durP2;ratioP2;P2;SDS_P1;SDS_P2;PMS_P1;PMS_P2;Temp;Humidity;BMP_temperature;BMP_pressure;BME280_temperature;BME280_humidity;BME280_pressure;Samples;Min_cycle;Max_cycle;Signal;HPM_P1;HPM_P2
2021/09/12 00:01:00;;;;;;;;;;;;;;;20.93;66.60;101411.63;5018053;28;1977;-61
2021/09/12 00:03:25;;;;;;;;;;;;;;;20.91;66.60;101413.63;5036123;28;859;-61
2021/09/12 00:05:51;;;;;;;;;;;;;;;20.93;66.84;101413.47;5036127;28;1944;-61
2021/09/12 00:08:16;;;;;;;;;;;;;;;20.93;67.24;101414.31;5048579;28;1844;-61
2021/09/12 00:10:41;;;;;;;;;;;;;;;20.93;66.97;101417.03;5055920;28;973;-61
2021/09/12 00:13:06;;;;;;;;;;;;;;;20.93;66.77;101416.19;5045561;28;1895;-61
2021/09/12 00:15:31;;;;;;;;;;;;;;;20.94;66.46;101412.47;5035381;28;1905;-63
2021/09/12 00:17:56;;;;;;;;;;;;;;;20.93;66.65;101408.06;5035207;28;1859;-63
2021/09/12 00:20:21;;;;;;;;;;;;;;;20.93;66.79;101405.34;5035943;28;804;-62
2021/09/12 00:22:46;;;;;;;;;;;;;;;20.90;66.95;101406.50;5048174;28;1906;-62
2021/09/12 00:25:11;;;;;;;;;;;;;;;20.92;66.83;101403.63;5047044;28;2033;-62
2021/09/12 00:27:36;;;;;;;;;;;;;;;20.92;66.81;101395.50;5035337;28;1918;-61
2021/09/12 00:30:01;;;;;;;;;;;;;;;20.94;66.91;101390.78;5035586;28;1069;-61
2021/09/12 00:32:26;;;;;;;;;;;;;;;20.91;67.19;101397.38;5034938;28;1033;-61
2021/09/12 00:34:52;;;;;;;;;;;;;;;20.90;66.87;101390.25;5036091;28;2084;-61
2021/09/12 00:37:17;;;;;;;;;;;;;;;20.89;67.15;101383.13;5035688;28;1962;-62
2021/09/12 00:39:42;;;;;;;;;;;;;;;20.88;66.88;101389.53;5036105;28;1972;-62
2021/09/12 00:42:07;;;;;;;;;;;;;;;20.84;66.82;101388.13;5049262;28;1926;-62
2021/09/12 00:44:32;;;;;;;;;;;;;;;20.84;67.17;101380.00;5055628;28;868;-62
2021/09/12 00:46:57;;;;;;;;;;;;;;;20.83;67.26;101380.16;5044166;28;1953;-61
2021/09/12 00:49:22;;;;;;;;;;;;;;;20.83;67.36;101382.88;5035389;28;1883;-63
2021/09/12 00:51:48;;;;;;;;;;;;;;;20.81;67.03;101385.72;5035548;28;1162;-63
2021/09/12 00:54:13;;;;;;;;;;;;;;;20.83;66.82;101381.00;5036207;28;1951;-62
2021/09/12 00:56:38;;;;;;;;;;;;;;;20.84;67.31;101385.44;5035286;28;1957;-62
2021/09/12 00:59:03;;;;;;;;;;;;;;;20.84;66.91;101390.00;5043580;28;1970;-62
2021/09/12 01:01:28;;;;;;;;;;;;;;;20.83;66.68;101385.56;5054998;28;1023;-65
2021/09/12 01:03:53;;;;;;;;;;;;;;;20.78;66.99;101386.88;5050084;28;1901;-64
2021/09/12 01:06:19;;;;;;;;;;;;;;;20.77;67.23;101390.63;5054366;28;2021;-63
2021/09/12 01:08:44;;;;;;;;;;;;;;;20.77;66.87;101390.63;5055024;28;1984;-63
2021/09/12 01:11:09;;;;;;;;;;;;;;;20.80;66.71;101394.84;5035157;28;1153;-63
2021/09/12 01:13:34;;;;;;;;;;;;;;;20.79;67.02;101394.00;5044382;28;2102;-64
2021/09/12 01:15:59;;;;;;;;;;;;;;;20.79;66.70;101393.16;5053060;28;1955;-64
2021/09/12 01:18:24;;;;;;;;;;;;;;;20.78;66.62;101386.06;5034557;28;1010;-64
2021/09/12 01:20:49;;;;;;;;;;;;;;;20.77;66.92;101389.78;5034590;28;860;-64
2021/09/12 01:23:14;;;;;;;;;;;;;;;20.75;66.98;101384.50;5035005;28;839;-64
2021/09/12 01:25:39;;;;;;;;;;;;;;;20.73;66.94;101391.06;5034480;28;1960;-65
2021/09/12 01:28:04;;;;;;;;;;;;;;;20.72;66.91;101386.66;5034350;28;1970;-65
2021/09/12 01:30:30;;;;;;;;;;;;;;;20.73;66.60;101385.66;5054575;28;1677;-64
2021/09/12 01:32:55;;;;;;;;;;;;;;;20.72;66.60;101387.50;5054381;28;1989;-64
2021/09/12 01:35:20;;;;;;;;;;;;;;;20.72;66.40;101381.25;5043949;28;1938;-63
2021/09/12 01:37:45;;;;;;;;;;;;;;;20.72;66.09;101386.66;5034665;28;831;-63
2021/09/12 01:40:10;;;;;;;;;;;;;;;20.72;66.14;101387.50;5043200;28;1851;-63
2021/09/12 01:42:35;;;;;;;;;;;;;;;20.70;66.46;101394.06;5051675;28;1821;-63
2021/09/12 01:45:00;;;;;;;;;;;;;;;20.69;66.31;101387.81;5053218;28;1945;-62
2021/09/12 01:47:25;;;;;;;;;;;;;;;20.65;66.17;101401.78;5038641;28;1005;-62
2021/09/12 01:49:50;;;;;;;;;;;;;;;20.66;66.13;101403.50;5038102;28;875;-63
2021/09/12 01:52:15;;;;;;;;;;;;;;;20.66;66.02;101403.50;5038585;28;1844;-64
2021/09/12 01:54:40;;;;;;;;;;;;;;;20.63;66.29;101390.25;5038819;28;1637;-63
2021/09/12 01:57:05;;;;;;;;;;;;;;;20.65;66.51;101399.09;5049932;28;1963;-63
2021/09/12 01:59:31;;;;;;;;;;;;;;;20.61;66.66;101400.38;5057324;28;1964;-62
2021/09/12 02:01:56;;;;;;;;;;;;;;;20.60;66.64;101399.53;5057590;28;1879;-63
2021/09/12 02:04:21;;;;;;;;;;;;;;;20.59;66.96;101397.84;5058485;28;1805;-62
2021/09/12 02:06:46;;;;;;;;;;;;;;;20.57;66.17;101399.00;5056357;28;2243;-64
2021/09/12 02:09:11;;;;;;;;;;;;;;;20.58;66.80;101400.72;5057196;28;1854;-64
2021/09/12 02:11:36;;;;;;;;;;;;;;;20.56;65.90;101402.72;5051800;28;1868;-64
2021/09/12 02:14:01;;;;;;;;;;;;;;;20.55;66.57;101406.44;5050048;28;1818;-64
2021/09/12 02:16:26;;;;;;;;;;;;;;;20.54;66.58;101393.88;5043768;28;2046;-62
2021/09/12 02:18:51;;;;;;;;;;;;;;;20.54;66.38;101402.88;5037966;28;1074;-63
2021/09/12 02:21:17;;;;;;;;;;;;;;;20.51;65.88;101400.44;5037822;28;799;-63
2021/09/12 02:23:42;;;;;;;;;;;;;;;20.54;66.04;101399.31;5040335;28;2077;-64
2021/09/12 02:26:07;;;;;;;;;;;;;;;20.53;66.11;101397.59;5046726;28;2004;-64
2021/09/12 02:28:32;;;;;;;;;;;;;;;20.51;66.28;101399.59;5029503;28;1972;-64
2021/09/12 02:30:57;;;;;;;;;;;;;;;20.51;65.96;101397.75;5056814;28;1990;-63
2021/09/12 02:33:22;;;;;;;;;;;;;;;20.52;65.47;101406.72;5052757;28;1895;-64
2021/09/12 02:35:47;;;;;;;;;;;;;;;20.49;65.43;101397.03;5057560;28;1898;-64
2021/09/12 02:38:12;;;;;;;;;;;;;;;20.50;66.06;101403.31;5056752;28;1850;-64
2021/09/12 02:40:38;;;;;;;;;;;;;;;20.49;65.49;101401.59;5057101;28;1918;-64
2021/09/12 02:43:03;;;;;;;;;;;;;;;20.49;65.35;101405.16;5042889;28;2015;-65
2021/09/12 02:45:28;;;;;;;;;;;;;;;20.48;65.61;101406.16;5037576;28;2071;-63
2021/09/12 02:47:53;;;;;;;;;;;;;;;20.48;65.27;101408.00;5037902;28;1915;-63
2021/09/12 02:50:18;;;;;;;;;;;;;;;20.47;65.65;101409.03;5037216;28;1570;-63
2021/09/12 02:52:43;;;;;;;;;;;;;;;20.47;65.96;101404.47;5037530;28;994;-64
2021/09/12 02:55:08;;;;;;;;;;;;;;;20.45;65.17;101407.31;5037240;28;993;-64
2021/09/12 02:57:33;;;;;;;;;;;;;;;20.43;65.46;101403.91;5036250;28;2034;-64
2021/09/12 02:59:59;;;;;;;;;;;;;;;20.42;65.31;101406.78;5050682;28;2074;-63
2021/09/12 03:02:24;;;;;;;;;;;;;;;20.41;65.05;101410.50;5056923;28;2013;-63
2021/09/12 03:04:49;;;;;;;;;;;;;;;20.41;65.05;101411.34;5041588;28;1978;-63
2021/09/12 03:07:14;;;;;;;;;;;;;;;20.39;65.08;101405.22;5056741;28;1010;-63
2021/09/12 03:09:39;;;;;;;;;;;;;;;20.38;65.70;101398.09;5057405;28;1037;-63
2021/09/12 03:12:04;;;;;;;;;;;;;;;20.39;65.38;101407.06;5045417;28;1907;-63
2021/09/12 03:14:29;;;;;;;;;;;;;;;20.38;65.31;101405.38;5037077;28;1915;-63
2021/09/12 03:16:54;;;;;;;;;;;;;;;20.37;64.98;101411.78;5036821;28;1967;-62
2021/09/12 03:19:19;;;;;;;;;;;;;;;20.35;65.54;101417.31;5036590;28;2010;-63
2021/09/12 03:21:44;;;;;;;;;;;;;;;20.34;64.86;101399.38;5036738;28;1590;-63
2021/09/12 03:24:10;;;;;;;;;;;;;;;20.31;65.41;101402.38;5037018;28;1062;-63
2021/09/12 03:26:35;;;;;;;;;;;;;;;20.31;64.83;101406.91;5036805;28;1891;-63
2021/09/12 03:29:00;;;;;;;;;;;;;;;20.30;65.18;101400.66;5036607;28;2018;-62
2021/09/12 03:31:25;;;;;;;;;;;;;;;20.32;65.01;101401.38;5036362;28;1966;-62
2021/09/12 03:33:50;;;;;;;;;;;;;;;20.31;64.96;101404.22;5036865;28;962;-65
2021/09/12 03:36:15;;;;;;;;;;;;;;;20.31;64.89;101398.81;5049308;28;1914;-65
2021/09/12 03:38:40;;;;;;;;;;;;;;;20.29;65.19;101404.38;5056299;28;974;-65
2021/09/12 03:41:05;;;;;;;;;;;;;;;20.30;64.73;101391.69;5055936;28;1916;-64
2021/09/12 03:43:30;;;;;;;;;;;;;;;20.29;64.63;101396.25;5054627;28;1871;-64
2021/09/12 03:45:56;;;;;;;;;;;;;;;20.28;65.18;101391.81;5037328;28;1868;-64
2021/09/12 03:48:21;;;;;;;;;;;;;;;20.27;64.41;101397.38;5036873;28;1969;-65
2021/09/12 03:50:47;;;;;;;;;;;;;;;20.27;64.44;101400.94;5036389;28;1914;-64
2021/09/12 03:53:12;;;;;;;;;;;;;;;20.27;64.78;101400.09;5056157;28;847;-65
2021/09/12 03:55:37;;;;;;;;;;;;;;;20.26;64.59;101398.38;5054581;28;1932;-64
2021/09/12 03:58:02;;;;;;;;;;;;;;;20.24;64.34;101405.84;5054458;28;2073;-62
2021/09/12 04:00:27;;;;;;;;;;;;;;;20.22;64.77;101408.69;5055884;28;1933;-63
2021/09/12 04:02:52;;;;;;;;;;;;;;;20.23;64.66;101415.81;5038151;28;1953;-66
2021/09/12 04:05:17;;;;;;;;;;;;;;;20.19;64.61;101417.09;5038985;28;1868;-66
2021/09/12 04:07:43;;;;;;;;;;;;;;;20.20;64.67;101416.09;5055388;28;1093;-64
2021/09/12 04:10:08;;;;;;;;;;;;;;;20.20;64.82;101413.38;5055579;28;871;-64
2021/09/12 04:12:34;;;;;;;;;;;;;;;20.19;64.86;101411.69;5051854;28;1904;-63
2021/09/12 04:14:59;;;;;;;;;;;;;;;20.16;64.74;101409.25;5036148;28;1943;-64
2021/09/12 04:17:24;;;;;;;;;;;;;;;20.17;64.75;101410.13;5018001;28;1979;-63
2021/09/12 04:19:49;;;;;;;;;;;;;;;20.15;64.87;101410.25;5053276;28;1849;-63
2021/09/12 04:22:14;;;;;;;;;;;;;;;20.15;63.98;101412.97;5055766;28;889;-64
2021/09/12 04:24:39;;;;;;;;;;;;;;;20.14;64.89;101403.16;5047298;28;1974;-64
2021/09/12 04:27:04;;;;;;;;;;;;;;;20.13;63.93;101406.84;5045987;28;1917;-64
2021/09/12 04:29:29;;;;;;;;;;;;;;;20.14;64.20;101403.16;5053818;28;1927;-64
2021/09/12 04:31:54;;;;;;;;;;;;;;;20.12;64.16;101407.84;5054884;28;1971;-62
2021/09/12 04:34:19;;;;;;;;;;;;;;;20.11;64.24;101412.41;5055651;28;862;-65
2021/09/12 04:36:46;;;;;;;;;;;;;;;20.10;64.51;101413.41;5053803;28;1962;-64
2021/09/12 04:39:11;;;;;;;;;;;;;;;20.09;64.12;101416.25;5056046;28;851;-64
2021/09/12 04:41:36;;;;;;;;;;;;;;;20.10;64.90;101420.66;5047683;28;1822;-64
2021/09/12 04:44:01;;;;;;;;;;;;;;;20.11;64.77;101419.66;5035346;28;1860;-64
2021/09/12 04:46:26;;;;;;;;;;;;;;;20.07;64.79;101416.41;5035665;28;902;-64
2021/09/12 04:48:51;;;;;;;;;;;;;;;20.10;65.25;101412.56;5041751;28;1968;-64
2021/09/12 04:51:16;;;;;;;;;;;;;;;20.09;65.05;101411.69;5035559;28;1831;-64
2021/09/12 04:53:41;;;;;;;;;;;;;;;20.08;65.07;101414.53;5035070;28;1006;-64
2021/09/12 04:56:06;;;;;;;;;;;;;;;20.06;64.87;101406.56;5035022;28;1938;-66
2021/09/12 04:58:31;;;;;;;;;;;;;;;20.07;65.16;101410.13;5037213;28;1985;-62
2021/09/12 05:00:56;;;;;;;;;;;;;;;20.05;64.78;101404.03;5045555;28;1941;-62
2021/09/12 05:03:22;;;;;;;;;;;;;;;20.04;65.04;101410.44;5035181;28;940;-62
2021/09/12 05:05:47;;;;;;;;;;;;;;;20.04;64.56;101414.00;5045567;28;1754;-64
2021/09/12 05:08:12;;;;;;;;;;;;;;;20.03;64.63;101412.31;5043060;28;1584;-64
2021/09/12 05:10:38;;;;;;;;;;;;;;;20.04;64.86;101410.44;5043071;28;1724;-64
2021/09/12 05:13:03;;;;;;;;;;;;;;;20.04;64.88;101407.75;5040846;28;2054;-64
2021/09/12 05:15:28;;;;;;;;;;;;;;;20.03;64.30;101401.47;5040711;28;1961;-64
2021/09/12 05:17:53;;;;;;;;;;;;;;;20.04;64.62;101405.03;5042666;28;1658;-62
2021/09/12 05:20:18;;;;;;;;;;;;;;;20.10;64.91;101401.72;5020234;28;998;-64
2021/09/12 05:22:43;;;;;;;;;;;;;;;20.17;65.59;101404.72;5039307;28;1959;-62
2021/09/12 05:25:08;;;;;;;;;;;;;;;20.17;65.40;101407.41;5041895;28;1913;-63
2021/09/12 05:27:33;;;;;;;;;;;;;;;20.17;64.73;101412.81;5058072;28;1817;-62
2021/09/12 05:29:58;;;;;;;;;;;;;;;20.17;65.22;101413.69;5044600;28;1662;-62
2021/09/12 05:32:23;;;;;;;;;;;;;;;20.15;65.30;101414.81;5043922;28;1940;-61
2021/09/12 05:34:48;;;;;;;;;;;;;;;20.10;64.98;101424.22;5046661;28;1718;-62
2021/09/12 05:37:13;;;;;;;;;;;;;;;20.06;65.40;101414.69;5051402;28;2226;-62
2021/09/12 05:39:39;;;;;;;;;;;;;;;20.05;65.49;101417.56;5054661;28;1765;-63
2021/09/12 05:42:04;;;;;;;;;;;;;;;20.05;65.86;101414.88;5054720;28;1496;-62
2021/09/12 05:44:29;;;;;;;;;;;;;;;20.04;64.91;101414.00;5054694;28;1482;-62
2021/09/12 05:46:54;;;;;;;;;;;;;;;20.03;65.64;101415.00;5053835;28;1505;-64
2021/09/12 05:49:19;;;;;;;;;;;;;;;20.03;65.49;101423.13;5054203;28;1483;-63
2021/09/12 05:51:44;;;;;;;;;;;;;;;20.03;65.59;101420.44;5038300;28;1359;-62
2021/09/12 05:54:09;;;;;;;;;;;;;;;20.10;64.39;101412.56;5055680;28;1551;-62
2021/09/12 05:56:34;;;;;;;;;;;;;;;20.08;65.54;101420.81;5050528;28;1893;-63
2021/09/12 05:58:59;;;;;;;;;;;;;;;20.04;64.96;101423.97;5055739;28;2148;-63
2021/09/12 06:01:24;;;;;;;;;;;;;;;20.03;65.13;101422.28;5046294;28;1310;-62
2021/09/12 06:03:49;;;;;;;;;;;;;;;20.02;65.73;101421.41;5055840;28;2078;-63
2021/09/12 06:06:15;;;;;;;;;;;;;;;20.03;65.46;101422.28;5048396;28;1637;-63
2021/09/12 06:08:40;;;;;;;;;;;;;;;20.01;64.77;101418.84;5053328;28;1841;-63
2021/09/12 06:11:05;;;;;;;;;;;;;;;20.01;65.14;101432.38;5056745;28;1647;-63
2021/09/12 06:13:30;;;;;;;;;;;;;;;20.01;65.39;101432.38;5053736;28;1546;-63
2021/09/12 06:15:55;;;;;;;;;;;;;;;20.00;65.68;101427.97;5054899;28;1890;-62
2021/09/12 06:18:20;;;;;;;;;;;;;;;19.98;65.04;101435.38;5057192;28;1789;-62
2021/09/12 06:20:45;;;;;;;;;;;;;;;19.96;65.76;101431.97;5029697;28;2119;-62
2021/09/12 06:23:10;;;;;;;;;;;;;;;19.96;65.84;101431.97;5040615;28;2149;-63
2021/09/12 06:25:35;;;;;;;;;;;;;;;19.96;65.93;101432.81;5056939;28;1838;-63
2021/09/12 06:28:00;;;;;;;;;;;;;;;19.97;65.46;101430.97;5056710;28;1865;-62
2021/09/12 06:30:25;;;;;;;;;;;;;;;19.95;65.29;101436.53;5072491;28;2294;-62
2021/09/12 06:32:50;;;;;;;;;;;;;;;19.96;65.28;101429.25;5064012;28;1941;-63
2021/09/12 06:35:15;;;;;;;;;;;;;;;20.02;66.00;101428.69;5072665;28;1835;-63
2021/09/12 06:37:41;;;;;;;;;;;;;;;20.07;65.57;101434.50;5058381;28;1971;-63
2021/09/12 06:40:06;;;;;;;;;;;;;;;20.10;66.51;101436.91;5028278;28;1796;-63
2021/09/12 06:42:31;;;;;;;;;;;;;;;20.08;65.81;101436.19;5055965;28;1711;-63
2021/09/12 06:44:56;;;;;;;;;;;;;;;20.09;65.76;101432.50;5052854;28;1750;-63
2021/09/12 06:47:21;;;;;;;;;;;;;;;20.11;65.31;101430.50;5051875;28;1792;-63
2021/09/12 06:49:46;;;;;;;;;;;;;;;20.09;65.65;101441.47;5052386;28;1900;-63
2021/09/12 06:52:11;;;;;;;;;;;;;;;20.08;65.16;101441.59;5054674;28;1775;-63
2021/09/12 06:54:36;;;;;;;;;;;;;;;20.06;65.82;101439.03;5055435;28;1559;-63
2021/09/12 06:57:01;;;;;;;;;;;;;;;20.03;65.46;101443.91;5030533;28;1894;-62
2021/09/12 06:59:26;;;;;;;;;;;;;;;20.02;65.10;101442.22;5055823;28;1665;-62
2021/09/12 07:01:51;;;;;;;;;;;;;;;20.03;65.37;101443.91;5055871;28;2267;-62
2021/09/12 07:04:16;;;;;;;;;;;;;;;20.03;65.38;101444.78;5055602;28;1442;-63
2021/09/12 07:06:41;;;;;;;;;;;;;;;20.03;65.40;101441.22;5052819;28;1445;-63
2021/09/12 07:09:06;;;;;;;;;;;;;;;20.04;64.99;101440.22;5053868;28;1489;-63
2021/09/12 07:11:32;;;;;;;;;;;;;;;20.03;65.73;101446.63;5049439;28;1364;-62
2021/09/12 07:13:57;;;;;;;;;;;;;;;20.04;65.90;101440.22;5048079;28;1601;-63
2021/09/12 07:16:22;;;;;;;;;;;;;;;20.05;65.91;101452.75;5043345;28;1922;-63
2021/09/12 07:18:47;;;;;;;;;;;;;;;20.01;65.88;101445.91;5043185;28;1856;-62
2021/09/12 07:21:12;;;;;;;;;;;;;;;20.01;65.83;101448.63;5038928;28;1065;-62
2021/09/12 07:23:37;;;;;;;;;;;;;;;19.99;65.49;101453.31;5056681;28;898;-62
2021/09/12 07:26:02;;;;;;;;;;;;;;;20.00;65.75;101455.03;5055850;28;1923;-63
2021/09/12 07:28:27;;;;;;;;;;;;;;;20.04;66.20;101451.03;5056762;28;1272;-62
2021/09/12 07:30:52;;;;;;;;;;;;;;;20.03;66.60;101450.19;5038510;28;1583;-62
2021/09/12 07:33:17;;;;;;;;;;;;;;;20.05;67.03;101444.63;5056006;28;1927;-63
2021/09/12 07:35:42;;;;;;;;;;;;;;;20.06;67.46;101443.63;5057052;28;1963;-62
2021/09/12 07:38:07;;;;;;;;;;;;;;;20.02;67.81;101447.63;5056440;28;1065;-63
2021/09/12 07:40:32;;;;;;;;;;;;;;;20.04;67.91;101451.91;5056424;28;994;-63
2021/09/12 07:42:58;;;;;;;;;;;;;;;20.11;66.46;101449.44;5037869;28;954;-62
2021/09/12 07:45:23;;;;;;;;;;;;;;;20.09;66.21;101454.13;5047687;28;1773;-63
2021/09/12 07:47:48;;;;;;;;;;;;;;;20.08;66.46;101457.84;5056145;28;1959;-63
2021/09/12 07:50:13;;;;;;;;;;;;;;;20.09;66.14;101459.56;5056286;28;1041;-62
2021/09/12 07:52:42;;;;;;;;;;;;;;;20.10;66.09;101461.25;5038224;28;1060;-62
2021/09/12 07:55:07;;;;;;;;;;;;;;;20.07;66.97;101466.97;5055978;28;847;-62
2021/09/12 07:57:32;;;;;;;;;;;;;;;20.04;67.44;101468.13;5055947;28;1897;-62
2021/09/12 07:59:57;;;;;;;;;;;;;;;19.93;67.83;101465.56;5055885;28;1037;-62
2021/09/12 08:02:22;;;;;;;;;;;;;;;19.89;67.61;101471.41;5056081;28;874;-62
2021/09/12 08:04:47;;;;;;;;;;;;;;;19.85;67.99;101470.88;5056001;28;1659;-62
2021/09/12 08:07:13;;;;;;;;;;;;;;;19.83;67.39;101469.28;5056032;28;977;-62
2021/09/12 08:09:38;;;;;;;;;;;;;;;19.82;67.81;101470.28;5055953;28;1356;-62
2021/09/12 08:12:03;;;;;;;;;;;;;;;19.72;67.75;101473.84;5056124;28;1065;-63
2021/09/12 08:14:28;;;;;;;;;;;;;;;19.76;68.18;101477.13;5055298;28;1871;-62
2021/09/12 08:16:53;;;;;;;;;;;;;;;19.85;67.35;101478.13;5041654;28;2005;-63
2021/09/12 08:19:19;;;;;;;;;;;;;;;19.83;67.12;101482.81;5027548;28;1871;-63
2021/09/12 08:21:44;;;;;;;;;;;;;;;19.86;67.50;101485.25;5045371;28;1902;-63
2021/09/12 08:24:09;;;;;;;;;;;;;;;19.99;66.65;101483.94;5026762;28;1769;-63
2021/09/12 08:26:34;;;;;;;;;;;;;;;20.07;66.52;101494.88;5046716;28;1892;-63
2021/09/12 08:28:59;;;;;;;;;;;;;;;20.10;66.69;101497.28;5055489;28;1267;-63
2021/09/12 08:31:24;;;;;;;;;;;;;;;20.12;66.87;101497.16;5055713;28;930;-63
2021/09/12 08:33:49;;;;;;;;;;;;;;;20.14;66.90;101500.56;5055760;28;1762;-63
2021/09/12 08:36:14;;;;;;;;;;;;;;;20.14;66.73;101494.31;5055260;28;1910;-63
2021/09/12 08:38:39;;;;;;;;;;;;;;;20.12;67.22;101502.56;5055418;28;866;-63
2021/09/12 08:41:05;;;;;;;;;;;;;;;20.12;67.31;101507.97;5055316;28;838;-63
2021/09/12 08:43:30;;;;;;;;;;;;;;;20.11;67.06;101515.25;5055270;28;836;-62
2021/09/12 08:45:55;;;;;;;;;;;;;;;20.10;66.88;101504.56;5054661;28;2060;-63
2021/09/12 08:48:20;;;;;;;;;;;;;;;20.09;66.12;101510.97;5055380;28;1572;-63
2021/09/12 08:50:45;;;;;;;;;;;;;;;20.07;67.04;101507.53;5055387;28;844;-64
2021/09/12 08:53:10;;;;;;;;;;;;;;;20.10;66.47;101509.97;5054627;28;936;-63
2021/09/12 08:55:36;;;;;;;;;;;;;;;20.09;66.13;101513.66;5054695;28;1013;-64
2021/09/12 08:58:02;;;;;;;;;;;;;;;20.09;67.43;101509.13;5055201;28;1936;-64
2021/09/12 09:00:27;;;;;;;;;;;;;;;20.10;67.40;101509.97;5053255;28;1913;-64
2021/09/12 09:02:52;;;;;;;;;;;;;;;20.09;66.79;101509.13;5055623;28;861;-64
2021/09/12 09:05:17;;;;;;;;;;;;;;;20.11;67.14;101511.69;5055208;28;1746;-64
2021/09/12 09:07:42;;;;;;;;;;;;;;;20.16;66.96;101511.25;5055028;28;907;-64
2021/09/12 09:10:07;;;;;;;;;;;;;;;20.19;66.84;101508.25;5054766;28;1249;-64
2021/09/12 09:12:33;;;;;;;;;;;;;;;20.18;67.33;101507.41;5054302;28;1010;-64
2021/09/12 09:14:58;;;;;;;;;;;;;;;20.17;66.95;101508.41;5053342;28;1614;-64
2021/09/12 09:17:23;;;;;;;;;;;;;;;20.21;68.14;101520.66;5049802;28;2212;-63
2021/09/12 09:19:48;;;;;;;;;;;;;;;20.23;67.12;101518.66;5036806;28;2033;-64
2021/09/12 09:22:13;;;;;;;;;;;;;;;20.18;67.79;101511.97;5040386;28;1687;-63
2021/09/12 09:24:38;;;;;;;;;;;;;;;20.21;66.83;101517.94;5034469;28;1261;-64
2021/09/12 09:27:04;;;;;;;;;;;;;;;20.22;67.14;101519.66;5034170;28;1105;-64
2021/09/12 09:29:29;;;;;;;;;;;;;;;20.24;68.35;101511.38;5034457;28;812;-64
2021/09/12 09:31:54;;;;;;;;;;;;;;;20.24;67.95;101512.25;5034272;28;831;-64
2021/09/12 09:34:19;;;;;;;;;;;;;;;20.23;67.87;101512.38;5016765;28;1022;-64
2021/09/12 09:36:44;;;;;;;;;;;;;;;20.25;67.74;101507.66;5048760;28;1913;-64
2021/09/12 09:39:09;;;;;;;;;;;;;;;20.28;67.55;101510.06;5054037;28;1840;-64
2021/09/12 09:41:34;;;;;;;;;;;;;;;20.28;67.94;101497.41;5054240;28;990;-65
2021/09/12 09:43:59;;;;;;;;;;;;;;;20.30;67.85;101503.53;5054161;28;993;-64
2021/09/12 09:46:24;;;;;;;;;;;;;;;20.31;67.61;101510.63;5054237;28;903;-64
2021/09/12 09:48:49;;;;;;;;;;;;;;;20.29;67.45;101503.66;5054128;28;839;-64
2021/09/12 09:51:14;;;;;;;;;;;;;;;20.30;67.92;101508.06;5045534;28;1224;-64
2021/09/12 09:53:40;;;;;;;;;;;;;;;20.30;68.02;101516.19;5040555;28;1522;-65
2021/09/12 09:56:05;;;;;;;;;;;;;;;20.33;68.59;101516.75;5046442;28;1871;-64
2021/09/12 09:58:30;;;;;;;;;;;;;;;20.34;68.95;101514.91;5036402;28;1339;-64
2021/09/12 10:00:55;;;;;;;;;;;;;;;20.34;68.93;101518.47;5043971;28;1387;-64
2021/09/12 10:03:20;;;;;;;;;;;;;;;20.35;68.99;101519.31;5034271;28;1326;-64
2021/09/12 10:05:45;;;;;;;;;;;;;;;20.37;68.91;101520.94;5036312;28;843;-64
2021/09/12 10:08:10;;;;;;;;;;;;;;;20.37;68.29;101522.78;5038141;28;840;-64
2021/09/12 10:10:35;;;;;;;;;;;;;;;20.39;68.36;101516.22;5038013;28;847;-64
2021/09/12 10:13:01;;;;;;;;;;;;;;;20.41;68.37;101513.38;5038571;28;863;-64
2021/09/12 10:15:26;;;;;;;;;;;;;;;20.45;68.48;101523.72;5038328;28;1966;-64
2021/09/12 10:17:51;;;;;;;;;;;;;;;20.50;68.17;101517.03;5038232;28;1901;-63
2021/09/12 10:20:16;;;;;;;;;;;;;;;20.53;68.46;101523.00;5045063;28;1813;-64
2021/09/12 10:22:41;;;;;;;;;;;;;;;20.56;68.26;101521.88;5045761;28;1536;-64
2021/09/12 10:25:06;;;;;;;;;;;;;;;20.57;68.09;101516.31;5043413;28;1495;-64
2021/09/12 10:27:32;;;;;;;;;;;;;;;20.59;68.26;101518.88;5027166;28;1587;-64
2021/09/12 10:29:57;;;;;;;;;;;;;;;20.61;68.39;101524.97;5038420;28;1549;-63
2021/09/12 10:32:22;;;;;;;;;;;;;;;20.62;69.28;101519.41;5043985;28;1438;-64
2021/09/12 10:34:47;;;;;;;;;;;;;;;20.60;69.47;101517.88;5048171;28;1634;-64
2021/09/12 10:37:12;;;;;;;;;;;;;;;20.60;67.68;101512.47;5047217;28;1905;-64
2021/09/12 10:39:37;;;;;;;;;;;;;;;20.61;69.59;101504.16;5042613;28;1382;-64
2021/09/12 10:42:02;;;;;;;;;;;;;;;20.62;69.00;101511.28;5050026;28;1537;-64
2021/09/12 10:44:27;;;;;;;;;;;;;;;20.59;68.96;101505.34;5041628;28;1253;-64
2021/09/12 10:46:52;;;;;;;;;;;;;;;20.61;68.75;101506.00;5048218;28;1395;-64
2021/09/12 10:49:17;;;;;;;;;;;;;;;20.60;68.30;101501.63;5056958;28;1753;-64
2021/09/12 10:51:42;;;;;;;;;;;;;;;20.57;68.60;101499.19;5056755;28;1013;-64
2021/09/12 10:54:08;;;;;;;;;;;;;;;20.56;68.81;101502.91;5053215;28;1824;-64
2021/09/12 10:56:33;;;;;;;;;;;;;;;20.58;68.70;101498.19;5037049;28;1863;-63
2021/09/12 10:58:58;;;;;;;;;;;;;;;20.57;68.92;101497.34;5037214;28;1408;-64
2021/09/12 11:01:23;;;;;;;;;;;;;;;20.59;68.94;101494.50;5039322;28;1247;-63
2021/09/12 11:03:48;;;;;;;;;;;;;;;20.63;68.54;101490.47;5036849;28;895;-63
2021/09/12 11:06:15;;;;;;;;;;;;;;;20.67;68.25;101489.16;5037138;28;842;-63
2021/09/12 11:08:40;;;;;;;;;;;;;;;20.71;70.02;101493.28;5037460;28;796;-64
2021/09/12 11:11:05;;;;;;;;;;;;;;;20.73;69.13;101494.84;5037386;28;974;-64
2021/09/12 11:13:30;;;;;;;;;;;;;;;20.75;71.30;101494.72;5036395;28;1205;-63
2021/09/12 11:15:55;;;;;;;;;;;;;;;20.75;71.31;101492.84;5044167;28;1878;-62
2021/09/12 11:18:21;;;;;;;;;;;;;;;20.74;70.28;101498.41;5039878;28;1358;-63
2021/09/12 11:20:46;;;;;;;;;;;;;;;20.71;70.17;101502.28;5049622;28;1339;-63
2021/09/12 11:23:11;;;;;;;;;;;;;;;20.69;70.25;101500.72;5044666;28;1164;-63
2021/09/12 11:25:36;;;;;;;;;;;;;;;20.66;69.61;101496.44;5037105;28;1906;-64
2021/09/12 11:28:01;;;;;;;;;;;;;;;20.66;69.55;101499.16;5046647;28;1966;-64
2021/09/12 11:30:27;;;;;;;;;;;;;;;20.66;70.33;101492.88;5055753;28;1026;-64
2021/09/12 11:32:52;;;;;;;;;;;;;;;20.68;69.37;101488.16;5056207;28;939;-64
2021/09/12 11:35:17;;;;;;;;;;;;;;;20.65;69.61;101493.88;5056060;28;1020;-64
2021/09/12 11:37:42;;;;;;;;;;;;;;;20.66;69.70;101491.03;5055881;28;1973;-64
2021/09/12 11:40:07;;;;;;;;;;;;;;;20.66;68.69;101493.72;5056315;28;1025;-64
2021/09/12 11:42:32;;;;;;;;;;;;;;;20.68;69.33;101490.88;5054607;28;922;-64
2021/09/12 11:44:57;;;;;;;;;;;;;;;20.66;69.24;101495.59;5055933;28;807;-64
2021/09/12 11:47:23;;;;;;;;;;;;;;;20.66;69.16;101496.44;5056014;28;930;-64
2021/09/12 11:49:48;;;;;;;;;;;;;;;20.64;69.37;101492.16;5055903;28;889;-64
2021/09/12 11:52:13;;;;;;;;;;;;;;;20.63;69.17;101490.47;5055705;28;881;-64
2021/09/12 11:54:38;;;;;;;;;;;;;;;20.64;68.89;101487.59;5046131;28;1951;-64
2021/09/12 11:57:03;;;;;;;;;;;;;;;20.63;68.56;101502.16;5035559;28;1960;-63
2021/09/12 11:59:28;;;;;;;;;;;;;;;20.65;68.60;101496.59;5018157;28;735;-64
2021/09/12 12:01:53;;;;;;;;;;;;;;;20.65;68.63;101493.88;5035642;28;803;-64
2021/09/12 12:04:19;;;;;;;;;;;;;;;20.64;68.62;101493.03;5035760;28;890;-64
2021/09/12 12:06:44;;;;;;;;;;;;;;;20.65;68.75;101496.59;5035456;28;815;-64
2021/09/12 12:09:09;;;;;;;;;;;;;;;20.65;67.91;101485.75;5017732;28;907;-64
2021/09/12 12:11:34;;;;;;;;;;;;;;;20.66;68.10;101487.47;5035560;28;780;-64
2021/09/12 12:13:59;;;;;;;;;;;;;;;20.68;67.83;101482.75;5040957;28;1538;-64
2021/09/12 12:16:24;;;;;;;;;;;;;;;20.70;67.54;101484.31;5055310;28;1898;-64
2021/09/12 12:18:49;;;;;;;;;;;;;;;20.70;67.47;101491.59;5055460;28;933;-64
2021/09/12 12:21:15;;;;;;;;;;;;;;;20.70;67.26;101497.00;5055172;28;906;-64
2021/09/12 12:23:42;;;;;;;;;;;;;;;20.70;66.89;101492.44;5055078;28;1649;-64
2021/09/12 12:26:07;;;;;;;;;;;;;;;20.71;66.76;101493.28;5055246;28;862;-64
2021/09/12 12:28:32;;;;;;;;;;;;;;;20.72;66.54;101495.00;5054914;28;1201;-64
2021/09/12 12:30:57;;;;;;;;;;;;;;;20.72;67.35;101497.72;5055131;28;1021;-64
2021/09/12 12:33:22;;;;;;;;;;;;;;;20.75;66.73;101497.41;5052011;28;1808;-64
2021/09/12 12:35:47;;;;;;;;;;;;;;;20.74;66.40;101499.28;5035049;28;1969;-64